Sunlight Ace — C6XP8 — position and weather

sailwx.info

Track history (hours):
 
Tides and Currents Weather Stations Pressure Air Temp Water Temp Dewpoint Dewpoint Depression Visibility Wind Speed Wind Dir Waves Ship Positions

Sunlight Ace

Last reported at 2017-Dec-16 15:10 UTC. Time now 2017-Dec-17 02:44 UTC.
Position N 33°59' E 129°47'.

Length 199 m; draft 9 m.

Type: Cargo ship. MMSI: 311018600.

Date/timePositionNaut miles runAvg speedWind from/ knotsBaromVisibWave heightAir tempDewpointWater temp
2017-Dec-16 15:10N 33°59' E 129°47'214.7
2017-Dec-16 15:00N 33°59' E 129°50'714.8
2017-Dec-16 14:30N 34°00' E 129°59'715.0
2017-Dec-16 14:00N 34°01' E 130°08'714.9
2017-Dec-16 13:30N 34°01' E 130°17'714.9
2017-Dec-16 13:00N 34°02' E 130°26'714.9
2017-Dec-16 12:30N 34°03' E 130°35'815.4
2017-Dec-16 12:00N 34°04' E 130°44'714.5
2017-Dec-16 11:30N 34°01' E 130°52'4 8.9
2017-Dec-16 11:00N 33°56' E 130°52'3 6.7
2017-Dec-16 10:30N 33°57' E 130°56'4 8.6
2017-Dec-16 10:00N 33°58' E 131°01'4 8.9
2017-Dec-16 09:30N 33°56' E 131°05'511.0
2017-Dec-16 09:00N 33°50' E 131°07'611.5
2017-Dec-16 08:30N 33°47' E 131°01'1 1.8
2017-Dec-16 07:58N 33°47' E 131°00'0 0.0
2017-Dec-16 07:28N 33°47' E 131°00'0 0.0
2017-Dec-16 06:58N 33°47' E 131°00'0 0.0
2017-Dec-16 06:28N 33°47' E 131°00'0 0.0
2017-Dec-16 05:58N 33°47' E 131°00'0 0.0
2017-Dec-16 05:28N 33°47' E 131°00'0 0.0
2017-Dec-16 04:58N 33°47' E 131°00'0 0.0
2017-Dec-16 04:28N 33°47' E 131°00'0 0.0
2017-Dec-16 03:52N 33°47' E 131°00'0 0.0
2017-Dec-16 03:28N 33°47' E 131°00'0 0.0
2017-Dec-16 02:59N 33°47' E 131°00'1 1.9
2017-Dec-16 02:30N 33°47' E 131°01'4 8.7
2017-Dec-16 02:00N 33°49' E 131°05'611.3
2017-Dec-16 01:30N 33°50' E 131°12'612.3
2017-Dec-16 01:00N 33°49' E 131°19'715.0
2017-Dec-16 00:30N 33°47' E 131°28'714.6
2017-Dec-16 00:00N 33°46' E 131°37'713.6
2017-Dec-15 23:31N 33°44' E 131°45'815.7
2017-Dec-15 23:00N 33°38' E 131°50'816.2
2017-Dec-15 22:30N 33°30' E 131°54'816.4
2017-Dec-15 22:00N 33°23' E 131°58'713.2
2017-Dec-15 21:30N 33°17' E 132°01'4 8.7
2017-Dec-15 21:00N 33°13' E 131°59'7114.2
2017-Dec-15 16:00N 32°42' E 133°16'25218.7
2017-Dec-15 02:29N 34°08' E 137°60'2818.9
2017-Dec-15 00:59N 34°20' E 138°31'918.8
2017-Dec-15 00:30N 34°24' E 138°41'10417.2
2017-Dec-14 18:27N 35°10' E 140°34'11 0.3
2017-Dec-13 03:38N 35°01' E 140°26'415.9
2017-Dec-13 03:23N 34°58' E 140°23'616.3
2017-Dec-13 03:00N 34°55' E 140°17'916.5
2017-Dec-13 02:27N 34°50' E 140°08'815.2
2017-Dec-13 01:55N 34°48' E 139°58'615.1
2017-Dec-13 01:30N 34°48' E 139°50'714.1
2017-Dec-13 01:00N 34°52' E 139°43'714.6
2017-Dec-13 00:30N 34°59' E 139°41'714.4
2017-Dec-13 00:00N 35°06' E 139°44'612.0
2017-Dec-12 23:31N 35°12' E 139°46'611.0
2017-Dec-12 23:00N 35°17' E 139°45'612.5
2017-Dec-12 22:30N 35°23' E 139°42'3 5.6
2017-Dec-12 22:00N 35°25' E 139°41'0 0.2
2017-Dec-12 21:30N 35°25' E 139°41'0 0.0
2017-Dec-12 21:00N 35°25' E 139°41'0 0.0
2017-Dec-12 20:30N 35°25' E 139°41'0 0.0
2017-Dec-12 20:00N 35°25' E 139°41'0 0.1
2017-Dec-12 19:30N 35°25' E 139°41'0 0.1
2017-Dec-12 19:00N 35°25' E 139°41'0 0.0
2017-Dec-12 18:30N 35°25' E 139°41'0 0.1
2017-Dec-12 18:00N 35°25' E 139°41'0 0.0
2017-Dec-12 17:30N 35°25' E 139°41'0 0.1
2017-Dec-12 17:00N 35°25' E 139°41'0 0.0
2017-Dec-12 16:30N 35°25' E 139°41'0 0.0
2017-Dec-12 16:00N 35°25' E 139°41'0 0.0
2017-Dec-12 15:30N 35°25' E 139°41'0 0.0
2017-Dec-12 15:00N 35°25' E 139°41'0 0.0
2017-Dec-12 14:30N 35°25' E 139°41'0 0.1
2017-Dec-12 14:00N 35°25' E 139°41'0 0.1
2017-Dec-12 13:30N 35°25' E 139°41'0 0.0
2017-Dec-12 13:00N 35°25' E 139°41'0 0.0
2017-Dec-12 12:30N 35°25' E 139°41'0 0.0
2017-Dec-12 12:00N 35°25' E 139°41'0 0.0
2017-Dec-12 11:30N 35°25' E 139°41'0 0.1
2017-Dec-12 11:00N 35°25' E 139°41'0 0.0
2017-Dec-12 10:30N 35°25' E 139°41'0 0.1
2017-Dec-12 10:00N 35°25' E 139°41'0 0.0
2017-Dec-12 09:27N 35°25' E 139°41'0 0.0
2017-Dec-12 09:00N 35°25' E 139°41'0 0.0
2017-Dec-12 08:30N 35°25' E 139°41'0 0.0
2017-Dec-12 08:00N 35°25' E 139°41'0 0.0
2017-Dec-12 07:30N 35°25' E 139°41'0 0.0
2017-Dec-12 07:00N 35°25' E 139°41'0 0.0
2017-Dec-12 06:30N 35°25' E 139°41'0 0.0
2017-Dec-12 06:00N 35°25' E 139°41'0 0.0
2017-Dec-12 05:30N 35°25' E 139°41'0 0.1
2017-Dec-12 05:00N 35°25' E 139°41'0 0.1
2017-Dec-12 04:30N 35°25' E 139°41'0 0.1
2017-Dec-12 04:00N 35°25' E 139°41'0 0.1
2017-Dec-12 03:30N 35°25' E 139°41'0 0.5
2017-Dec-12 03:01N 35°25' E 139°41'2 4.1
2017-Dec-12 02:30N 35°24' E 139°43'4 8.0
2017-Dec-12 02:00N 35°20' E 139°43'510.7
2017-Dec-12 01:30N 35°16' E 139°47'510.8
2017-Dec-12 01:00N 35°10' E 139°47'4 8.3
2017-Dec-12 00:30N 35°06' E 139°46'611.7
2017-Dec-12 00:00N 35°01' E 139°42'611.2
2017-Dec-11 23:30N 34°56' E 139°40'2 3.2
2017-Dec-11 23:00N 34°57' E 139°39'1 2.0
2017-Dec-11 22:30N 34°58' E 139°40'1 2.0
2017-Dec-11 21:59N 34°57' E 139°39'1 2.0
2017-Dec-11 21:30N 34°57' E 139°38'1 2.5
2017-Dec-11 21:00N 34°56' E 139°37'3 6.2
2017-Dec-11 20:30N 34°58' E 139°40'3 5.4
2017-Dec-11 20:00N 35°00' E 139°41'1 1.2
2017-Dec-11 19:31N 35°01' E 139°41'3 6.1
2017-Dec-11 19:00N 34°58' E 139°41'612.4
2017-Dec-11 18:30N 34°52' E 139°38'612.7
2017-Dec-11 18:00N 34°47' E 139°34'811.2
2017-Dec-11 17:17N 34°40' E 139°29'413.1
2017-Dec-11 17:01N 34°38' E 139°25'918.0
2017-Dec-11 16:31N 34°36' E 139°14'917.3
2017-Dec-11 16:00N 34°32' E 139°05'816.6
2017-Dec-11 15:30N 34°28' E 138°56'815.9
2017-Dec-11 15:00N 34°24' E 138°48'815.9
2017-Dec-11 14:30N 34°19' E 138°40'815.5
2017-Dec-11 13:59N 34°15' E 138°31'  
Track history (hours):
 
Tides and Currents Weather Stations Pressure Air Temp Water Temp Dewpoint Dewpoint Depression Visibility Wind Speed Wind Dir Waves Ship Positions

Sunlight Ace

Last reported at 2017-Dec-16 15:10 UTC. Time now 2017-Dec-17 02:44 UTC.
Position N 33°59' E 129°47'.

Length 199 m; draft 9 m.

Type: Cargo ship. MMSI: 311018600.

Date/timePositionNaut miles runAvg speedWind from/ knotsBaromVisibWave heightAir tempDewpointWater temp
2017-Dec-16 15:10N 33°59' E 129°47'214.7
2017-Dec-16 15:00N 33°59' E 129°50'714.8
2017-Dec-16 14:30N 34°00' E 129°59'715.0
2017-Dec-16 14:00N 34°01' E 130°08'714.9
2017-Dec-16 13:30N 34°01' E 130°17'714.9
2017-Dec-16 13:00N 34°02' E 130°26'714.9
2017-Dec-16 12:30N 34°03' E 130°35'815.4
2017-Dec-16 12:00N 34°04' E 130°44'714.5
2017-Dec-16 11:30N 34°01' E 130°52'4 8.9
2017-Dec-16 11:00N 33°56' E 130°52'3 6.7
2017-Dec-16 10:30N 33°57' E 130°56'4 8.6
2017-Dec-16 10:00N 33°58' E 131°01'4 8.9
2017-Dec-16 09:30N 33°56' E 131°05'511.0
2017-Dec-16 09:00N 33°50' E 131°07'611.5
2017-Dec-16 08:30N 33°47' E 131°01'1 1.8
2017-Dec-16 07:58N 33°47' E 131°00'0 0.0
2017-Dec-16 07:28N 33°47' E 131°00'0 0.0
2017-Dec-16 06:58N 33°47' E 131°00'0 0.0
2017-Dec-16 06:28N 33°47' E 131°00'0 0.0
2017-Dec-16 05:58N 33°47' E 131°00'0 0.0
2017-Dec-16 05:28N 33°47' E 131°00'0 0.0
2017-Dec-16 04:58N 33°47' E 131°00'0 0.0
2017-Dec-16 04:28N 33°47' E 131°00'0 0.0
2017-Dec-16 03:52N 33°47' E 131°00'0 0.0
2017-Dec-16 03:28N 33°47' E 131°00'0 0.0
2017-Dec-16 02:59N 33°47' E 131°00'1 1.9
2017-Dec-16 02:30N 33°47' E 131°01'4 8.7
2017-Dec-16 02:00N 33°49' E 131°05'611.3
2017-Dec-16 01:30N 33°50' E 131°12'612.3
2017-Dec-16 01:00N 33°49' E 131°19'715.0
2017-Dec-16 00:30N 33°47' E 131°28'714.6
2017-Dec-16 00:00N 33°46' E 131°37'713.6
2017-Dec-15 23:31N 33°44' E 131°45'815.7
2017-Dec-15 23:00N 33°38' E 131°50'816.2
2017-Dec-15 22:30N 33°30' E 131°54'816.4
2017-Dec-15 22:00N 33°23' E 131°58'713.2
2017-Dec-15 21:30N 33°17' E 132°01'4 8.7
2017-Dec-15 21:00N 33°13' E 131°59'7114.2
2017-Dec-15 16:00N 32°42' E 133°16'25218.7
2017-Dec-15 02:29N 34°08' E 137°60'2818.9
2017-Dec-15 00:59N 34°20' E 138°31'918.8
2017-Dec-15 00:30N 34°24' E 138°41'10417.2
2017-Dec-14 18:27N 35°10' E 140°34'11 0.3
2017-Dec-13 03:38N 35°01' E 140°26'415.9
2017-Dec-13 03:23N 34°58' E 140°23'616.3
2017-Dec-13 03:00N 34°55' E 140°17'916.5
2017-Dec-13 02:27N 34°50' E 140°08'815.2
2017-Dec-13 01:55N 34°48' E 139°58'615.1
2017-Dec-13 01:30N 34°48' E 139°50'714.1
2017-Dec-13 01:00N 34°52' E 139°43'714.6
2017-Dec-13 00:30N 34°59' E 139°41'714.4
2017-Dec-13 00:00N 35°06' E 139°44'612.0
2017-Dec-12 23:31N 35°12' E 139°46'611.0
2017-Dec-12 23:00N 35°17' E 139°45'612.5
2017-Dec-12 22:30N 35°23' E 139°42'3 5.6
2017-Dec-12 22:00N 35°25' E 139°41'0 0.2
2017-Dec-12 21:30N 35°25' E 139°41'0 0.0
2017-Dec-12 21:00N 35°25' E 139°41'0 0.0
2017-Dec-12 20:30N 35°25' E 139°41'0 0.0
2017-Dec-12 20:00N 35°25' E 139°41'0 0.1
2017-Dec-12 19:30N 35°25' E 139°41'0 0.1
2017-Dec-12 19:00N 35°25' E 139°41'0 0.0
2017-Dec-12 18:30N 35°25' E 139°41'0 0.1
2017-Dec-12 18:00N 35°25' E 139°41'0 0.0
2017-Dec-12 17:30N 35°25' E 139°41'0 0.1
2017-Dec-12 17:00N 35°25' E 139°41'0 0.0
2017-Dec-12 16:30N 35°25' E 139°41'0 0.0
2017-Dec-12 16:00N 35°25' E 139°41'0 0.0
2017-Dec-12 15:30N 35°25' E 139°41'0 0.0
2017-Dec-12 15:00N 35°25' E 139°41'0 0.0
2017-Dec-12 14:30N 35°25' E 139°41'0 0.1
2017-Dec-12 14:00N 35°25' E 139°41'0 0.1
2017-Dec-12 13:30N 35°25' E 139°41'0 0.0
2017-Dec-12 13:00N 35°25' E 139°41'0 0.0
2017-Dec-12 12:30N 35°25' E 139°41'0 0.0
2017-Dec-12 12:00N 35°25' E 139°41'0 0.0
2017-Dec-12 11:30N 35°25' E 139°41'0 0.1
2017-Dec-12 11:00N 35°25' E 139°41'0 0.0
2017-Dec-12 10:30N 35°25' E 139°41'0 0.1
2017-Dec-12 10:00N 35°25' E 139°41'0 0.0
2017-Dec-12 09:27N 35°25' E 139°41'0 0.0
2017-Dec-12 09:00N 35°25' E 139°41'0 0.0
2017-Dec-12 08:30N 35°25' E 139°41'0 0.0
2017-Dec-12 08:00N 35°25' E 139°41'0 0.0
2017-Dec-12 07:30N 35°25' E 139°41'0 0.0
2017-Dec-12 07:00N 35°25' E 139°41'0 0.0
2017-Dec-12 06:30N 35°25' E 139°41'0 0.0
2017-Dec-12 06:00N 35°25' E 139°41'0 0.0
2017-Dec-12 05:30N 35°25' E 139°41'0 0.1
2017-Dec-12 05:00N 35°25' E 139°41'0 0.1
2017-Dec-12 04:30N 35°25' E 139°41'0 0.1
2017-Dec-12 04:00N 35°25' E 139°41'0 0.1
2017-Dec-12 03:30N 35°25' E 139°41'0 0.5
2017-Dec-12 03:01N 35°25' E 139°41'2 4.1
2017-Dec-12 02:30N 35°24' E 139°43'4 8.0
2017-Dec-12 02:00N 35°20' E 139°43'510.7
2017-Dec-12 01:30N 35°16' E 139°47'510.8
2017-Dec-12 01:00N 35°10' E 139°47'4 8.3
2017-Dec-12 00:30N 35°06' E 139°46'611.7
2017-Dec-12 00:00N 35°01' E 139°42'611.2
2017-Dec-11 23:30N 34°56' E 139°40'2 3.2
2017-Dec-11 23:00N 34°57' E 139°39'1 2.0
2017-Dec-11 22:30N 34°58' E 139°40'1 2.0
2017-Dec-11 21:59N 34°57' E 139°39'1 2.0
2017-Dec-11 21:30N 34°57' E 139°38'1 2.5
2017-Dec-11 21:00N 34°56' E 139°37'3 6.2
2017-Dec-11 20:30N 34°58' E 139°40'3 5.4
2017-Dec-11 20:00N 35°00' E 139°41'1 1.2
2017-Dec-11 19:31N 35°01' E 139°41'3 6.1
2017-Dec-11 19:00N 34°58' E 139°41'612.4
2017-Dec-11 18:30N 34°52' E 139°38'612.7
2017-Dec-11 18:00N 34°47' E 139°34'811.2
2017-Dec-11 17:17N 34°40' E 139°29'413.1
2017-Dec-11 17:01N 34°38' E 139°25'918.0
2017-Dec-11 16:31N 34°36' E 139°14'917.3
2017-Dec-11 16:00N 34°32' E 139°05'816.6
2017-Dec-11 15:30N 34°28' E 138°56'815.9
2017-Dec-11 15:00N 34°24' E 138°48'815.9
2017-Dec-11 14:30N 34°19' E 138°40'815.5
2017-Dec-11 13:59N 34°15' E 138°31'  

Dump ship's entire track history